Time;durP1;ratioP1;P1;durP2;ratioP2;P2;SDS_P1;SDS_P2;PMS_P1;PMS_P2;Temp;Humidity;BMP_temperature;BMP_pressure;BME280_temperature;BME280_humidity;BME280_pressure;Samples;Min_cycle;Max_cycle;Signal;HPM_P1;HPM_P2
2021/07/06 00:00:34;;;;;;;3.60;2.42;;;14.00;99.90;;;12.74;100.00;105113.16;4971973;28;20090;-76
2021/07/06 00:03:01;;;;;;;49.13;2.30;;;13.90;99.90;;;12.70;100.00;104900.69;5004734;28;20136;-76
2021/07/06 00:05:28;;;;;;;11.27;3.67;;;14.00;99.90;;;12.76;100.00;104651.22;4993355;28;20532;-76
2021/07/06 00:07:54;;;;;;;10.88;4.10;;;14.00;99.90;;;12.77;100.00;104650.38;5001522;28;20064;-76
2021/07/06 00:10:24;;;;;;;13.75;5.00;;;14.10;99.90;;;12.85;100.00;104442.38;5001918;28;20074;-76
2021/07/06 00:12:51;;;;;;;9.75;4.80;;;14.10;99.90;;;12.83;100.00;104274.84;5001742;28;20107;-76
2021/07/06 00:15:23;;;;;;;8.32;5.10;;;14.10;99.90;;;12.84;100.00;104193.75;4985890;28;20076;-76
2021/07/06 00:17:54;;;;;;;56.30;4.45;;;14.10;99.90;;;12.85;100.00;104065.91;4989191;28;20090;-76
2021/07/06 00:20:22;;;;;;;8.23;4.78;;;14.10;99.90;;;12.81;100.00;104168.19;4982302;28;21008;-77
2021/07/06 00:22:49;;;;;;;17.25;3.80;;;14.10;99.90;;;12.77;100.00;107205.06;4974252;28;21056;-76
2021/07/06 00:25:15;;;;;;;6.10;3.33;;;14.00;99.90;;;12.70;100.00;107069.81;5002270;28;20547;-76
2021/07/06 00:27:45;;;;;;;23.98;3.03;;;14.00;99.90;;;12.65;100.00;106272.38;5015041;28;20179;-77
2021/07/06 00:30:11;;;;;;;16.40;3.08;;;13.90;99.90;;;12.59;100.00;105700.00;5017059;28;20065;-77
2021/07/06 00:32:38;;;;;;;16.65;3.70;;;13.90;99.90;;;12.54;100.00;105278.56;5010031;28;20057;-76
2021/07/06 00:35:06;;;;;;;6.10;3.97;;;13.80;99.90;;;12.52;100.00;105025.59;4986846;28;20062;-77
2021/07/06 00:37:33;;;;;;;17.45;3.30;;;13.80;99.90;;;12.50;100.00;105068.75;4992456;28;20560;-76
2021/07/06 00:40:02;;;;;;;10.35;2.92;;;14.40;99.90;;;12.54;100.00;105104.06;5003305;28;20592;-76
2021/07/06 00:42:28;;;;;;;4.78;2.92;;;13.90;99.90;;;12.54;100.00;104963.94;4984287;28;20081;-76
2021/07/06 00:44:54;;;;;;;9.30;2.67;;;13.90;99.90;;;12.50;100.00;104585.88;5012640;28;20098;-76
2021/07/06 00:47:37;;;;;;;3.17;2.50;;;13.80;99.90;;;12.45;100.00;104443.97;4970442;28;20056;-76
2021/07/06 00:50:10;;;;;;;11.32;2.70;;;13.70;99.90;;;12.36;100.00;104364.66;4976857;28;20056;-77
2021/07/06 00:52:36;;;;;;;6.47;3.00;;;13.60;99.90;;;12.29;100.00;104435.97;4979024;28;20076;-77
2021/07/06 00:55:05;;;;;;;3.60;2.58;;;13.70;99.90;;;12.31;100.00;104233.38;5005485;28;20495;-77
2021/07/06 00:57:35;;;;;;;18.90;3.00;;;13.60;99.90;;;12.29;100.00;104097.72;4987148;28;20068;-77
2021/07/06 01:00:08;;;;;;;19.13;3.08;;;13.60;99.90;;;12.26;100.00;104033.41;4980778;28;20470;-77
2021/07/06 01:02:34;;;;;;;15.27;1.88;;;13.60;99.90;;;12.16;100.00;103966.53;5029122;28;20120;-77
2021/07/06 01:05:03;;;;;;;5.57;1.20;;;13.40;99.90;;;11.89;100.00;103682.25;4989543;28;20057;-76
2021/07/06 01:07:29;;;;;;;2.20;1.10;;;13.20;99.90;;;11.71;100.00;103614.56;4996849;28;20049;-77
2021/07/06 01:09:55;;;;;;;9.27;1.50;;;13.00;99.90;;;11.57;100.00;103590.84;4976677;28;20055;-77
2021/07/06 01:12:21;;;;;;;10.80;1.15;;;12.90;99.90;;;11.48;100.00;103583.00;5000219;28;20532;-76
2021/07/06 01:14:47;;;;;;;21.35;0.85;;;12.80;99.90;;;11.35;100.00;103528.53;5006835;28;20165;-76
2021/07/06 01:17:14;;;;;;;25.17;1.15;;;12.70;99.90;;;11.23;100.00;103467.06;5001360;28;20470;-77
2021/07/06 01:19:42;;;;;;;36.60;1.67;;;12.60;99.90;;;11.01;100.00;103375.75;5003327;28;20666;-77
2021/07/06 01:22:09;;;;;;;17.00;1.17;;;12.40;99.90;;;10.83;100.00;103332.81;4990372;28;20063;-77
2021/07/06 01:24:38;;;;;;;4.10;1.10;;;12.20;99.90;;;10.76;100.00;103322.34;5006051;28;20072;-76
2021/07/06 01:27:05;;;;;;;13.43;0.98;;;12.20;99.90;;;10.75;100.00;103382.03;4988704;28;20145;-76
2021/07/06 01:29:32;;;;;;;7.90;0.70;;;12.20;99.90;;;10.72;100.00;103753.66;5012577;28;20142;-76
2021/07/06 01:32:03;;;;;;;8.73;0.93;;;12.20;99.90;;;10.66;100.00;103824.81;4987855;28;20576;-77
2021/07/06 01:34:30;;;;;;;3.75;1.13;;;12.10;99.90;;;10.66;100.00;103990.84;5007692;28;20079;-77
2021/07/06 01:36:56;;;;;;;21.70;2.42;;;12.10;99.90;;;10.78;100.00;103818.72;5009518;28;20090;-76
2021/07/06 01:39:22;;;;;;;18.15;3.03;;;12.20;99.90;;;10.90;100.00;103791.47;5012198;28;21507;-76
2021/07/06 01:41:48;;;;;;;5.80;2.80;;;12.40;99.90;;;11.07;100.00;103850.38;4979964;28;20058;-77
2021/07/06 01:44:24;;;;;;;6.40;3.30;;;12.40;99.90;;;11.09;100.00;103816.97;4981436;28;20061;-77
2021/07/06 01:46:52;;;;;;;10.60;3.17;;;12.40;99.90;;;11.06;100.00;103881.13;5012115;28;20061;-77
2021/07/06 01:49:19;;;;;;;9.15;3.38;;;12.50;99.90;;;11.20;100.00;104020.94;5012015;28;20060;-77
2021/07/06 01:51:47;;;;;;;7.00;4.38;;;12.60;99.90;;;11.39;100.00;104019.25;4968519;28;20485;-77
2021/07/06 01:54:15;;;;;;;9.80;4.13;;;12.70;99.90;;;11.54;100.00;103849.50;4978802;28;20504;-77
2021/07/06 01:56:45;;;;;;;3.53;2.53;;;12.80;99.90;;;11.54;100.00;103843.34;4968239;28;20070;-77
2021/07/06 01:59:15;;;;;;;3.50;1.77;;;12.90;99.90;;;11.50;100.00;103934.81;5013543;28;20580;-77
2021/07/06 02:01:44;;;;;;;7.32;1.60;;;12.80;99.90;;;11.44;100.00;103933.06;4996765;28;20066;-77
2021/07/06 02:04:11;;;;;;;59.15;2.13;;;12.70;99.90;;;11.31;100.00;103923.38;5003516;28;20060;-77
2021/07/06 02:06:41;;;;;;;4.57;1.10;;;12.60;99.90;;;11.05;100.00;103857.41;4968644;28;20072;-77
2021/07/06 02:09:08;;;;;;;11.70;1.10;;;12.40;99.90;;;10.85;100.00;103879.34;4997057;28;20063;-77
2021/07/06 02:11:34;;;;;;;12.07;0.65;;;12.20;99.90;;;10.62;100.00;103895.06;4996048;28;20484;-76
2021/07/06 02:14:01;;;;;;;1.73;0.40;;;11.90;99.90;;;10.48;100.00;104106.69;5019575;28;20136;-77
2021/07/06 02:16:28;;;;;;;5.82;0.90;;;11.90;99.90;;;10.46;100.00;104060.13;5007780;28;20412;-77
2021/07/06 02:18:54;;;;;;;10.48;0.70;;;11.90;99.90;;;10.46;100.00;103861.66;4997200;28;20450;-77
2021/07/06 02:21:21;;;;;;;4.38;0.70;;;11.90;99.90;;;10.51;100.00;103795.78;5021788;28;20072;-77
2021/07/06 02:23:48;;;;;;;6.03;0.88;;;11.90;99.90;;;10.51;100.00;103959.16;5006319;28;20138;-77
2021/07/06 02:26:14;;;;;;;10.60;1.08;;;11.90;99.90;;;10.50;100.00;103867.81;5000613;28;20092;-77
2021/07/06 02:28:42;;;;;;;3.50;0.90;;;11.90;99.90;;;10.58;100.00;103960.94;4989770;28;20075;-77
2021/07/06 02:31:10;;;;;;;7.47;0.90;;;12.00;99.90;;;10.67;100.00;103974.16;4996438;28;20154;-77
2021/07/06 02:33:39;;;;;;;0.70;0.65;;;12.10;99.90;;;10.74;100.00;103869.66;4997121;28;20074;-77
2021/07/06 02:36:08;;;;;;;2.17;1.00;;;12.10;99.90;;;10.82;100.00;103881.97;4989234;28;20079;-77
2021/07/06 02:38:43;;;;;;;2.45;1.25;;;12.20;99.90;;;10.84;100.00;103932.94;4995984;28;20057;-77
2021/07/06 02:41:09;;;;;;;1.93;1.27;;;12.20;99.90;;;10.87;100.00;103968.97;4997245;28;20078;-77
2021/07/06 02:43:36;;;;;;;2.80;1.30;;;12.20;99.90;;;10.87;100.00;103950.53;4986956;28;22459;-77
2021/07/06 02:46:02;;;;;;;2.10;1.40;;;11.70;99.90;;;10.85;100.00;104042.78;4988452;28;20427;-77
2021/07/06 02:48:28;;;;;;;2.85;1.35;;;12.20;99.90;;;10.83;100.00;104151.72;4988111;28;20056;-77
2021/07/06 02:50:54;;;;;;;6.88;1.60;;;12.20;99.90;;;10.89;100.00;104080.59;4987361;28;20397;-77
2021/07/06 02:53:20;;;;;;;8.68;1.70;;;12.40;99.90;;;11.00;100.00;104091.19;5018531;28;20064;-77
2021/07/06 02:55:46;;;;;;;15.57;1.27;;;12.40;99.90;;;10.94;100.00;104049.84;5000878;28;20118;-77
2021/07/06 02:58:12;;;;;;;6.13;0.50;;;12.30;99.90;;;10.80;100.00;104019.91;5005125;28;20068;-77
2021/07/06 03:00:39;;;;;;;11.48;1.17;;;12.10;99.90;;;10.65;100.00;104157.75;4977208;28;20080;-77
2021/07/06 03:03:09;;;;;;;3.22;1.90;;;12.10;99.90;;;10.80;100.00;103906.56;4977014;28;20057;-77
2021/07/06 03:05:40;;;;;;;2.90;1.38;;;12.30;99.90;;;11.01;100.00;103972.53;4971324;28;20183;-77
2021/07/06 03:08:06;;;;;;;10.95;2.00;;;12.40;99.90;;;11.11;100.00;104096.53;4983601;28;20068;-77
2021/07/06 03:10:39;;;;;;;10.38;1.63;;;12.50;99.90;;;11.13;100.00;104048.19;4995655;28;20059;-77
2021/07/06 03:13:05;;;;;;;16.00;1.27;;;;;;;11.01;100.00;104090.31;4972874;28;20554;-77
2021/07/06 03:15:32;;;;;;;9.25;1.02;;;12.40;99.90;;;10.84;100.00;104045.41;4991934;28;20540;-77
2021/07/06 03:18:05;;;;;;;5.07;0.88;;;12.30;99.90;;;10.77;100.00;104046.25;4976766;28;20072;-77
2021/07/06 03:20:34;;;;;;;3.15;1.33;;;12.20;99.90;;;10.84;100.00;104016.41;4995993;28;20551;-77
2021/07/06 03:23:00;;;;;;;0.70;0.70;;;12.30;99.90;;;10.91;100.00;104070.94;4993312;28;20071;-77
2021/07/06 03:25:28;;;;;;;7.20;1.73;;;12.40;99.90;;;11.06;100.00;104084.19;4984687;28;20068;-77
2021/07/06 03:28:03;;;;;;;2.05;1.67;;;12.60;99.90;;;11.25;100.00;103931.25;5002253;28;20059;-77
2021/07/06 03:30:40;;;;;;;3.20;1.55;;;12.60;99.90;;;11.33;100.00;104005.16;4980455;28;20533;-77
2021/07/06 03:33:11;;;;;;;3.50;2.45;;;12.70;99.90;;;11.46;100.00;104125.69;5007266;28;20521;-76
2021/07/06 03:35:39;;;;;;;5.28;2.30;;;12.90;99.90;;;11.62;100.00;104164.47;4986333;28;20083;-77
2021/07/06 03:38:06;;;;;;;4.85;1.77;;;13.00;99.90;;;11.69;100.00;104408.25;4988205;28;20072;-77
2021/07/06 03:40:34;;;;;;;3.95;2.03;;;13.10;99.90;;;11.73;100.00;104423.25;5002839;28;20143;-77
2021/07/06 03:43:00;;;;;;;2.97;2.40;;;13.20;99.90;;;11.83;100.00;104393.38;5005761;28;20131;-77
2021/07/06 03:45:27;;;;;;;2.92;2.10;;;13.40;99.90;;;12.03;100.00;104324.88;4960024;28;20094;-77
2021/07/06 03:47:54;;;;;;;11.88;1.65;;;14.00;99.90;;;12.67;100.00;104464.31;5004784;28;20066;-77
2021/07/06 03:50:24;;;;;;;8.38;2.25;;;15.00;99.90;;;13.43;100.00;104483.06;5005716;28;20060;-77
2021/07/06 03:52:57;;;;;;;5.72;1.98;;;15.20;99.90;;;13.60;100.00;107358.16;4992198;28;20066;-77
2021/07/06 03:55:29;;;;;;;3.25;2.22;;;16.10;99.90;;;14.39;100.00;108386.84;4961684;28;20066;-77
2021/07/06 03:57:56;;;;;;;2.60;2.40;;;16.80;99.90;;;14.84;100.00;107298.06;5003489;28;20055;-77
2021/07/06 04:00:26;;;;;;;3.17;2.45;;;17.30;99.90;;;15.19;100.00;106887.69;4971994;28;20083;-77
2021/07/06 04:02:54;;;;;;;3.47;2.97;;;17.50;99.90;;;15.29;100.00;108930.69;4988742;28;20029;-78
2021/07/06 04:05:21;;;;;;;5.38;2.40;;;;;;;15.73;100.00;110318.66;4995857;28;20041;-77
2021/07/06 04:07:47;;;;;;;3.05;2.22;;;18.30;99.90;;;16.25;97.35;109588.88;5023002;28;20025;-77
2021/07/06 04:10:16;;;;;;;2.97;2.30;;;18.80;99.90;;;16.64;94.98;108679.63;4991239;28;20543;-77
2021/07/06 04:12:44;;;;;;;2.92;2.30;;;19.10;99.90;;;16.94;94.36;107923.63;4993213;28;20478;-78
2021/07/06 04:15:14;;;;;;;2.97;2.40;;;19.70;99.90;;;17.49;90.84;107484.91;5000620;28;20083;-77
2021/07/06 04:17:41;;;;;;;3.28;2.70;;;20.10;99.90;;;18.20;88.66;111531.41;4986824;28;20035;-78
2021/07/06 04:20:11;;;;;;;8.98;3.00;;;20.60;99.90;;;18.87;84.36;110313.47;5004287;28;20037;-77
2021/07/06 04:22:39;;;;;;;10.48;2.70;;;20.80;99.90;;;18.84;84.02;107961.78;4979314;28;20103;-78
2021/07/06 04:25:10;;;;;;;3.63;2.53;;;20.90;99.90;;;18.58;83.78;107132.88;4980974;28;20020;-77
2021/07/06 04:27:36;;;;;;;4.30;2.70;;;20.50;99.90;;;18.37;84.81;110896.88;5022058;28;20067;-78
2021/07/06 04:30:05;;;;;;;6.03;2.92;;;19.90;99.90;;;17.56;90.44;107062.06;4997416;28;20037;-77
2021/07/06 04:32:31;;;;;;;9.48;2.67;;;20.20;99.90;;;18.53;87.07;105890.28;4980267;28;20029;-77
2021/07/06 04:34:57;;;;;;;6.82;2.80;;;20.60;99.90;;;18.86;85.49;105335.69;5009218;28;20045;-77
2021/07/06 04:37:23;;;;;;;6.63;2.63;;;20.90;99.90;;;19.05;84.07;105822.66;5011000;28;20593;-77
2021/07/06 04:39:49;;;;;;;3.42;2.47;;;20.70;99.90;;;18.44;85.79;105844.88;4979946;28;24418;-77
2021/07/06 04:42:16;;;;;;;7.57;2.90;;;19.80;99.90;;;17.49;90.96;106241.69;4987741;28;20673;-77
2021/07/06 04:44:43;;;;;;;5.88;2.53;;;19.70;99.90;;;17.66;91.00;104829.00;5003400;28;20108;-77
2021/07/06 04:47:10;;;;;;;3.67;2.55;;;19.00;99.90;;;17.16;96.33;104319.97;5017471;28;20025;-77
2021/07/06 04:49:39;;;;;;;12.60;3.20;;;19.40;99.90;;;17.78;93.22;106919.44;4992095;28;20033;-77
2021/07/06 04:52:05;;;;;;;7.63;2.55;;;19.50;99.90;;;17.98;91.33;105194.88;5008384;28;20029;-77
2021/07/06 04:54:31;;;;;;;9.05;2.70;;;19.50;99.90;;;18.00;94.18;104312.19;4980414;28;20101;-77
2021/07/06 04:56:57;;;;;;;13.88;2.50;;;19.90;99.90;;;18.24;91.47;104073.38;4987247;28;20083;-77
2021/07/06 04:59:23;;;;;;;8.95;2.70;;;20.30;99.90;;;19.03;89.87;104062.31;4973251;28;20030;-77
2021/07/06 05:01:56;;;;;;;11.25;2.40;;;20.70;99.90;;;19.35;81.42;104340.13;4976023;28;21276;-76
2021/07/06 05:04:22;;;;;;;6.60;2.47;;;20.20;99.90;;;18.80;90.01;104772.28;4960765;28;20032;-77
2021/07/06 05:06:48;;;;;;;6.68;3.10;;;19.80;99.90;;;18.03;93.10;104398.34;5002282;28;20026;-77
2021/07/06 05:09:14;;;;;;;6.03;3.10;;;19.80;99.90;;;18.75;93.11;104964.56;5008323;28;22190;-77
2021/07/06 05:11:42;;;;;;;8.35;2.97;;;20.20;99.90;;;18.55;90.70;104116.16;4975016;28;20026;-77
2021/07/06 05:14:08;;;;;;;7.10;3.03;;;20.00;99.90;;;18.60;93.24;104287.69;5009373;28;20021;-76
2021/07/06 05:16:34;;;;;;;7.93;3.42;;;19.90;99.90;;;18.55;93.34;106606.75;4979979;28;20090;-76
2021/07/06 05:19:00;;;;;;;9.55;3.90;;;19.80;99.90;;;18.36;93.31;104776.56;4987197;28;20029;-77
2021/07/06 05:21:26;;;;;;;10.73;3.33;;;19.60;99.90;;;18.39;94.44;104481.19;4991922;28;20051;-76
2021/07/06 05:23:52;;;;;;;6.50;3.90;;;19.20;99.90;;;17.76;96.93;104188.25;4986253;28;20022;-77
2021/07/06 05:26:18;;;;;;;6.57;4.00;;;19.20;99.90;;;17.77;97.72;103915.47;4985510;28;20026;-76
2021/07/06 05:28:47;;;;;;;9.48;4.10;;;19.00;99.90;;;17.66;99.98;103745.22;4998451;28;20738;-76
2021/07/06 05:31:12;;;;;;;16.88;4.30;;;19.00;99.90;;;17.77;99.47;103599.19;4986467;28;20393;-76
2021/07/06 05:33:38;;;;;;;8.20;4.13;;;18.90;99.90;;;17.64;98.73;103435.31;4984807;28;20021;-76
2021/07/06 05:36:05;;;;;;;5.35;4.30;;;18.60;99.90;;;17.29;100.00;103566.97;4990116;28;20073;-76
2021/07/06 05:38:31;;;;;;;6.70;4.35;;;18.50;99.90;;;17.47;100.00;103586.81;4993676;28;20493;-76
2021/07/06 05:40:57;;;;;;;11.75;4.80;;;18.60;99.90;;;17.47;99.90;103316.00;5000258;28;20042;-76
2021/07/06 05:43:26;;;;;;;14.45;5.22;;;18.70;99.90;;;17.62;99.58;103230.25;4986560;28;20265;-76
2021/07/06 05:45:55;;;;;;;12.05;4.35;;;18.90;99.90;;;17.81;98.67;103168.25;4992136;28;20383;-76
2021/07/06 05:48:22;;;;;;;9.25;4.20;;;19.30;99.90;;;18.39;96.74;103143.75;4989257;28;20041;-76
2021/07/06 05:50:48;;;;;;;8.00;3.92;;;20.40;99.90;;;19.80;91.33;103247.16;5032496;28;20041;-76
2021/07/06 05:53:15;;;;;;;10.90;3.97;;;22.00;99.90;;;21.02;85.10;103512.72;5009891;28;20026;-76
2021/07/06 05:55:44;;;;;;;5.38;3.58;;;22.70;99.90;;;21.13;79.64;103457.78;5009566;28;20038;-77
2021/07/06 05:58:12;;;;;;;7.22;3.95;;;23.10;99.90;;;21.13;79.59;103489.94;4998560;28;20029;-77
2021/07/06 06:00:39;;;;;;;4.97;3.28;;;22.40;99.90;;;20.56;83.35;103390.81;4993825;28;20128;-77
2021/07/06 06:03:10;;;;;;;4.18;3.15;;;23.00;99.90;;;22.53;77.46;103363.81;4995457;28;20036;-76
2021/07/06 06:05:41;;;;;;;6.68;3.47;;;24.50;99.90;;;24.28;69.74;104243.78;5002127;28;20389;-77
2021/07/06 06:08:09;;;;;;;9.68;2.97;;;25.40;99.90;;;24.48;68.06;104056.06;5015706;28;20393;-76
2021/07/06 06:10:36;;;;;;;4.13;2.60;;;26.20;99.90;;;25.44;62.70;107523.16;5023198;28;20031;-76
2021/07/06 06:13:04;;;;;;;4.95;2.42;;;26.00;99.90;;;24.98;64.04;105349.25;5004733;28;20025;-76
2021/07/06 06:15:30;;;;;;;4.00;2.22;;;25.70;99.90;;;24.72;67.94;104723.06;5006417;28;20040;-76
2021/07/06 06:17:57;;;;;;;3.42;2.20;;;25.10;99.90;;;22.90;71.29;103898.19;4996506;28;20033;-76
2021/07/06 06:20:23;;;;;;;2.90;1.85;;;25.30;99.90;;;24.86;65.35;104169.00;5031565;28;20037;-76
2021/07/06 06:22:49;;;;;;;5.07;1.92;;;25.50;99.90;;;24.71;64.21;112176.16;5004566;28;20030;-76
2021/07/06 06:25:15;;;;;;;4.15;1.67;;;25.50;99.90;;;23.79;67.47;110217.78;5012494;28;20376;-77
2021/07/06 06:27:41;;;;;;;2.90;1.88;;;24.00;99.90;;;21.92;73.66;107337.09;5017255;28;20043;-76
2021/07/06 06:30:10;;;;;;;5.43;1.60;;;23.40;99.90;;;22.11;74.06;105501.50;4973875;28;20033;-76
2021/07/06 06:32:35;;;;;;;4.30;1.60;;;23.70;99.90;;;23.41;74.38;104831.50;5002492;28;20024;-76
2021/07/06 06:35:04;;;;;;;3.22;1.55;;;24.70;99.90;;;24.18;66.13;104821.41;5006588;28;20022;-76
2021/07/06 06:37:30;;;;;;;2.35;1.38;;;24.20;99.90;;;23.10;73.31;108014.97;5025234;28;20492;-76
2021/07/06 06:39:55;;;;;;;3.80;1.00;;;24.30;99.90;;;23.16;69.92;108704.81;4976296;28;20049;-76
2021/07/06 06:42:21;;;;;;;9.55;1.00;;;23.10;99.90;;;21.58;77.95;110866.22;4981717;28;20035;-76
2021/07/06 06:44:50;;;;;;;2.38;1.20;;;22.90;99.90;;;22.51;75.16;109099.16;4998534;28;20028;-76
2021/07/06 06:47:17;;;;;;;3.60;1.33;;;24.00;99.90;;;24.18;68.50;106762.50;5037520;28;20967;-76
2021/07/06 06:49:43;;;;;;;4.60;1.20;;;24.40;99.90;;;23.75;69.99;108368.63;5005393;28;20029;-76
2021/07/06 06:52:09;;;;;;;2.90;1.20;;;24.50;99.90;;;24.36;69.00;105507.59;5007192;28;20099;-76
2021/07/06 06:54:35;;;;;;;1.75;0.90;;;24.40;99.90;;;23.85;71.64;104660.31;5022270;28;20025;-75
2021/07/06 06:57:01;;;;;;;3.10;0.90;;;25.40;99.90;;;25.64;66.01;104422.91;5023224;28;20381;-76
2021/07/06 06:59:28;;;;;;;1.70;0.80;;;26.40;99.90;;;26.08;59.07;104782.47;5000255;28;20032;-76
2021/07/06 07:04:38;;;;;;;3.10;0.70;;;25.20;99.90;;;24.35;64.76;103779.34;5012002;28;20032;-75
2021/07/06 07:07:04;;;;;;;1.45;0.75;;;25.50;99.90;;;25.81;63.46;103713.03;5012510;28;20021;-76
2021/07/06 07:09:30;;;;;;;3.83;0.70;;;26.00;99.90;;;25.03;60.98;103566.97;4998559;28;20860;-75
2021/07/06 07:11:56;;;;;;;2.40;0.70;;;25.80;99.90;;;25.23;58.02;103546.88;4997789;28;20413;-75
2021/07/06 07:14:24;;;;;;;0.70;0.70;;;25.40;99.90;;;24.70;60.72;103395.72;4996275;28;20082;-76
2021/07/06 07:16:51;;;;;;;0.57;0.57;;;25.60;99.90;;;25.45;57.19;103401.53;5020785;28;20116;-76
2021/07/06 07:19:17;;;;;;;3.75;0.52;;;25.70;99.90;;;25.25;59.29;103254.59;5038654;28;20027;-76
2021/07/06 07:21:43;;;;;;;3.63;0.50;;;26.20;99.90;;;26.06;55.67;103115.66;5032292;28;20068;-75
2021/07/06 07:24:09;;;;;;;3.92;0.73;;;26.10;99.90;;;25.93;54.51;102913.28;5004125;28;20155;-75
2021/07/06 07:26:35;;;;;;;8.27;0.60;;;26.00;99.90;;;26.22;54.69;102839.09;4995158;28;20116;-75
2021/07/06 07:29:02;;;;;;;1.77;0.60;;;26.50;99.90;;;26.74;54.73;102768.19;5005964;28;20139;-76
2021/07/06 07:31:28;;;;;;;1.20;0.50;;;26.50;99.90;;;25.56;57.75;102875.63;5015483;28;20036;-76
2021/07/06 07:33:55;;;;;;;0.80;0.70;;;26.00;99.90;;;25.68;57.61;102703.88;5011315;28;20548;-75
2021/07/06 07:36:21;;;;;;;1.33;0.50;;;25.70;99.90;;;25.32;57.80;103363.75;5022411;28;20037;-75
2021/07/06 07:38:47;;;;;;;3.38;0.75;;;25.50;99.90;;;25.77;58.97;106737.94;5011455;28;20029;-75
2021/07/06 07:41:13;;;;;;;3.63;1.48;;;26.30;99.90;;;26.42;56.58;109349.19;5023897;28;20037;-75
2021/07/06 07:43:38;;;;;;;0.93;0.60;;;26.70;99.90;;;26.52;55.82;103874.06;5032399;28;20483;-75
2021/07/06 07:46:05;;;;;;;4.28;0.68;;;26.50;99.90;;;26.23;57.79;103559.97;5003775;28;20288;-75
2021/07/06 07:48:31;;;;;;;5.80;0.60;;;26.50;99.90;;;26.06;58.21;103196.66;5021636;28;20017;-75
2021/07/06 07:50:57;;;;;;;4.97;0.68;;;26.50;99.90;;;25.68;56.26;102857.66;5021528;28;20393;-75
2021/07/06 07:53:23;;;;;;;2.47;0.82;;;25.70;99.90;;;24.86;59.20;102614.16;5008876;28;20112;-75
2021/07/06 07:55:52;;;;;;;7.28;0.65;;;25.40;99.90;;;25.14;60.73;102567.91;5006133;28;20036;-75
2021/07/06 07:58:18;;;;;;;1.73;0.65;;;25.80;99.90;;;25.86;58.80;104264.25;5015978;28;20029;-75
2021/07/06 08:00:44;;;;;;;2.65;0.90;;;26.60;99.90;;;26.77;57.42;103411.13;5021197;28;20128;-75
2021/07/06 08:03:10;;;;;;;3.05;0.60;;;26.80;99.90;;;26.67;53.49;103144.41;5024804;28;20490;-75
2021/07/06 08:05:36;;;;;;;5.53;0.60;;;26.80;99.90;;;26.29;54.04;102760.16;4995740;28;20022;-75
2021/07/06 08:08:02;;;;;;;1.65;0.73;;;26.90;99.90;;;26.92;53.68;102671.16;5010220;28;20035;-75
2021/07/06 08:10:28;;;;;;;2.25;0.60;;;27.00;99.90;;;26.92;53.30;102768.47;5021531;28;20025;-75
2021/07/06 08:12:54;;;;;;;4.38;0.90;;;27.30;99.90;;;26.90;56.23;102467.72;4997756;28;20108;-74
2021/07/06 08:15:20;;;;;;;3.45;0.70;;;27.50;99.90;;;26.71;51.33;102355.03;5008865;28;20044;-75
2021/07/06 08:17:46;;;;;;;3.90;0.70;;;27.00;99.90;;;26.16;53.87;102290.56;5005391;28;20023;-75
2021/07/06 08:20:13;;;;;;;5.75;0.57;;;27.00;99.90;;;26.34;53.77;102196.25;5021288;28;20052;-75
2021/07/06 08:22:40;;;;;;;0.50;0.50;;;27.30;99.90;;;26.94;53.60;103612.66;5005265;28;20555;-75
2021/07/06 08:25:07;;;;;;;1.15;0.57;;;27.30;99.90;;;26.86;53.93;104014.28;4998161;28;20036;-75
2021/07/06 08:27:33;;;;;;;6.55;0.65;;;28.00;99.90;;;26.98;52.02;103023.94;5033385;28;20084;-75
2021/07/06 08:29:58;;;;;;;1.30;0.60;;;28.10;99.90;;;27.32;52.99;102812.91;5006370;28;20029;-75
2021/07/06 08:32:24;;;;;;;2.30;0.63;;;28.70;99.90;;;28.15;53.26;102751.56;5022059;28;20025;-75
2021/07/06 08:34:50;;;;;;;4.60;0.70;;;29.00;99.90;;;28.23;51.16;102608.19;5020143;28;20496;-75
2021/07/06 08:37:16;;;;;;;3.15;0.70;;;28.80;99.90;;;27.49;51.85;102297.47;5021934;28;20329;-75
2021/07/06 08:39:42;;;;;;;0.60;0.47;;;28.40;99.90;;;27.52;50.58;102203.38;5003475;28;20175;-75
2021/07/06 08:42:09;;;;;;;11.65;1.05;;;28.30;99.90;;;27.51;53.14;102244.09;5005856;28;20025;-75
2021/07/06 08:44:36;;;;;;;5.00;0.70;;;27.90;99.90;;;26.95;51.14;102107.84;4986066;28;20115;-75
2021/07/06 08:47:04;;;;;;;2.15;0.70;;;28.10;99.90;;;27.58;54.45;102332.66;5020288;28;20017;-75
2021/07/06 08:49:34;;;;;;;1.13;0.70;;;28.90;99.90;;;28.07;51.55;102158.44;5002101;28;20021;-75
2021/07/06 08:52:03;;;;;;;0.85;0.68;;;29.40;99.90;;;28.32;48.72;102136.03;5035219;28;20028;-75
2021/07/06 08:54:30;;;;;;;4.20;0.65;;;28.60;99.90;;;27.55;49.60;102275.28;5013804;28;20059;-75
2021/07/06 08:56:56;;;;;;;0.75;0.50;;;28.70;99.90;;;27.84;48.93;102023.50;5003075;28;20036;-75
2021/07/06 08:59:22;;;;;;;4.32;0.57;;;28.40;99.90;;;27.67;51.21;105767.91;5003034;28;20186;-75
2021/07/06 09:02:07;;;;;;;1.60;0.82;;;28.00;99.90;;;26.72;53.07;102848.53;4992235;28;20045;-75
2021/07/06 09:04:58;;;;;;;2.60;0.60;;;27.90;99.90;;;27.24;51.11;102329.53;4959380;28;20079;-75
2021/07/06 09:08:10;;;;;;;6.55;0.60;;;27.60;99.90;;;26.88;53.25;102093.22;4980451;28;20535;-75
2021/07/06 09:10:58;;;;;;;1.95;0.70;;;27.40;99.90;;;26.91;53.62;102049.69;4970790;28;20040;-75
2021/07/06 09:13:47;;;;;;;5.30;0.90;;;28.00;99.90;;;27.57;51.66;102035.19;4975163;28;20041;-75
2021/07/06 09:16:38;;;;;;;1.75;0.73;;;28.30;99.90;;;27.56;51.61;102377.06;4984290;28;20448;-75
2021/07/06 09:19:59;;;;;;;1.10;0.60;;;28.30;99.90;;;27.60;53.41;102135.88;4978889;28;20108;-75
2021/07/06 09:23:00;;;;;;;5.18;0.93;;;28.50;99.90;;;28.00;50.29;102095.94;4977946;28;20049;-75
2021/07/06 09:26:15;;;;;;;0.98;0.60;;;28.30;99.90;;;27.72;50.63;101993.09;4968930;28;20052;-75
2021/07/06 09:29:39;;;;;;;0.55;0.50;;;28.40;99.90;;;27.67;50.49;101935.91;4961445;28;20040;-75
2021/07/06 09:33:17;;;;;;;0.95;0.50;;;28.20;99.90;;;27.92;51.38;101896.38;4981989;28;20044;-75
2021/07/06 09:37:12;;;;;;;0.98;0.80;;;28.50;99.90;;;27.71;51.83;101834.47;4969112;28;20045;-75
2021/07/06 09:40:50;;;;;;;2.63;0.80;;;28.30;99.90;;;27.96;51.97;101845.50;4980820;28;20096;-75
2021/07/06 09:43:53;;;;;;;0.68;0.68;;;28.50;99.90;;;28.31;50.11;101868.88;4994050;28;20087;-75
2021/07/06 09:46:26;;;;;;;0.70;0.70;;;28.70;99.90;;;28.48;49.64;101858.16;4984887;28;20393;-76
2021/07/06 09:49:31;;;;;;;1.92;0.70;;;29.20;99.90;;;29.06;49.29;101834.84;4989908;28;20025;-76
2021/07/06 09:52:39;;;;;;;1.35;0.75;;;29.40;99.90;;;28.76;47.86;101777.50;4987524;28;20073;-74
2021/07/06 09:55:49;;;;;;;1.92;0.65;;;29.40;99.90;;;28.70;48.13;101746.50;4960916;28;21699;-75
2021/07/06 09:59:03;;;;;;;0.43;0.43;;;29.40;99.90;;;29.15;51.67;101712.69;4993948;28;20531;-74
2021/07/06 10:02:37;;;;;;;0.80;0.65;;;29.50;99.90;;;28.76;46.99;101748.53;4965076;28;20420;-74
2021/07/06 10:05:58;;;;;;;0.50;0.50;;;29.10;99.90;;;28.73;49.52;101699.25;4969915;28;20571;-74
2021/07/06 10:09:19;;;;;;;3.30;0.60;;;29.10;99.90;;;28.79;51.27;101688.59;4962238;28;20115;-74
2021/07/06 10:12:41;;;;;;;1.08;0.60;;;29.10;99.90;;;28.56;48.02;101645.03;4970623;28;20034;-74
2021/07/06 10:16:12;;;;;;;1.88;0.80;;;29.30;99.90;;;28.91;49.22;101857.16;4971314;28;20041;-74
2021/07/06 10:18:54;;;;;;;1.55;0.80;;;29.60;99.90;;;29.18;50.44;101766.59;4964975;28;20505;-74
2021/07/06 10:22:05;;;;;;;2.80;0.60;;;29.80;99.90;;;29.07;47.17;101712.66;4961674;28;20131;-74
2021/07/06 10:25:27;;;;;;;0.63;0.50;;;29.50;99.90;;;29.23;48.29;102515.53;4969732;28;20037;-74
2021/07/06 10:28:48;;;;;;;3.13;0.70;;;29.60;99.90;;;29.05;50.53;101993.97;4982917;28;20109;-74
2021/07/06 10:31:29;;;;;;;5.28;0.77;;;29.60;99.30;;;29.01;45.85;101802.81;4982124;28;20049;-74
2021/07/06 10:35:14;;;;;;;0.88;0.60;;;29.60;99.90;;;29.47;47.43;101729.97;4975007;28;20104;-75